KSJC/SJC METAR and TAF weather

Enter ICAO airport designator
Station Type Date Time Source
KSJC METAR 2019/02/17 07:53 UTC NOAA

KSJC 170753Z 26004KT 10SM FEW015 FEW060 06/03 A3015 RMK AO2 SLP208 LAS


Station Type Date Time Source
KSJC Decoded METAR 2019/02/17 07:53 UTC NOAA

SAN JOSE INTERNATIONAL AIRPORT, CA, United States (KSJC) 37-22N 121-55W 25M
Feb 17, 2019 - 02:53 AM EST / 2019.02.17 0753 UTC
Wind: from the W (260 degrees) at 5 MPH (4 KT):0
Visibility: 10 mile(s):0
Sky conditions: mostly clear
Temperature: 43.0 F (6.1 C)
Dew Point: 37.9 F (3.3 C)
Relative Humidity: 82%
Pressure (altimeter): 30.15 in. Hg (1020 hPa)
ob: KSJC 170753Z 26004KT 10SM FEW015 FEW060 06/03 A3015 RMK AO2 SLP208 LAST T00610033 401170061
cycle: 8

Station Type Date Time Source
KSJC TAF 2019/02/17 06:24 UTC NOAA

TAF KSJC 170522Z 1706/1806 26008KT P6SM VCSH FEW030 SCT050 SCT100
FM170900 17006KT P6SM VCSH FEW030 SCT050 BKN070
FM171100 15007KT P6SM -SHRA BKN040
FM171700 26012KT P6SM VCSH FEW040 SCT050
FM172100 30012G22KT P6SM VCSH FEW050 SCT100
FM180300 31007KT P6SM VCSH FEW050 SCT100


Example: see airport list